createdAt,value
2022-09-07T00:00:20.339Z,100181.53
2022-09-07T00:05:22.046Z,100180.16
2022-09-07T00:10:23.937Z,100177.50
2022-09-07T00:15:25.831Z,100179.78
2022-09-07T00:20:27.433Z,100169.91
2022-09-07T00:25:31.877Z,100165.13
2022-09-07T00:30:34.870Z,100158.78
2022-09-07T00:35:41.049Z,100157.56
2022-09-07T00:40:42.770Z,100147.44
2022-09-07T00:45:44.332Z,100152.63
2022-09-07T00:50:57.831Z,100143.91
2022-09-07T00:55:59.761Z,100152.13
2022-09-07T01:01:01.582Z,100146.06
2022-09-07T01:06:18.075Z,100138.47
2022-09-07T01:11:21.910Z,100138.81
2022-09-07T01:16:42.192Z,100131.81
2022-09-07T01:22:27.917Z,100124.16
2022-09-07T01:27:41.580Z,100131.22
2022-09-07T01:33:26.787Z,100137.91
2022-09-07T01:38:37.795Z,100134.22
2022-09-07T01:44:09.809Z,100118.81
2022-09-07T01:49:23.572Z,100123.13
2022-09-07T01:54:33.092Z,100112.00
2022-09-07T01:59:44.050Z,100130.16
2022-09-07T02:04:52.990Z,100129.66
2022-09-07T02:09:59.379Z,100140.78
2022-09-07T02:15:05.265Z,100138.59
2022-09-07T02:20:11.221Z,100136.66
2022-09-07T02:25:22.707Z,100124.97
2022-09-07T02:30:24.438Z,100122.94
2022-09-07T02:35:26.207Z,100114.19
2022-09-07T02:40:27.998Z,100111.09
2022-09-07T02:45:38.433Z,100103.88
2022-09-07T02:50:48.883Z,100105.88
2022-09-07T02:56:12.612Z,100102.38
2022-09-07T03:01:24.596Z,100093.44
2022-09-07T03:06:41.727Z,100094.22
2022-09-07T03:11:43.388Z,100100.47
2022-09-07T03:16:46.472Z,100099.69
2022-09-07T03:21:48.617Z,100109.44
2022-09-07T03:26:51.742Z,100117.56
2022-09-07T03:31:53.309Z,100114.66
2022-09-07T03:36:54.876Z,100112.56
2022-09-07T03:41:56.442Z,100099.63
2022-09-07T03:46:57.987Z,100108.38
2022-09-07T03:51:59.793Z,100111.03
2022-09-07T03:57:01.361Z,100110.28
2022-09-07T04:02:03.359Z,100106.50
2022-09-07T04:07:05.848Z,100097.78
2022-09-07T04:12:07.714Z,100108.13
2022-09-07T04:17:09.354Z,100095.63
2022-09-07T04:22:11.013Z,100098.41
2022-09-07T04:27:12.866Z,100111.22
2022-09-07T04:32:15.975Z,100109.34
2022-09-07T04:37:18.618Z,100101.22
2022-09-07T04:42:20.711Z,100104.84
2022-09-07T04:47:22.498Z,100095.34
2022-09-07T04:52:24.389Z,100096.06
2022-09-07T04:57:26.630Z,100099.16
2022-09-07T05:02:28.207Z,100099.69
2022-09-07T05:07:29.856Z,100106.66
2022-09-07T05:12:31.566Z,100108.75
2022-09-07T05:17:33.547Z,100103.66
2022-09-07T05:22:35.718Z,100104.59
2022-09-07T05:27:37.438Z,100089.91
2022-09-07T05:32:39.247Z,100087.09
2022-09-07T05:37:41.392Z,100091.47
2022-09-07T05:42:43.105Z,100084.19
2022-09-07T05:47:45.137Z,100084.28
2022-09-07T05:52:48.006Z,100090.09
2022-09-07T05:57:49.870Z,100104.16
2022-09-07T06:02:51.610Z,100092.28
2022-09-07T06:07:54.708Z,100094.78
2022-09-07T06:12:56.420Z,100087.34
2022-09-07T06:17:58.121Z,100079.84
2022-09-07T06:22:59.712Z,100073.59
2022-09-07T06:28:01.445Z,100061.69
2022-09-07T06:33:03.598Z,100055.38
2022-09-07T06:38:05.646Z,100065.63
2022-09-07T06:43:07.494Z,100068.94
2022-09-07T06:48:09.250Z,100077.88
2022-09-07T06:58:32.964Z,100083.13
2022-09-07T07:03:34.716Z,100080.56
2022-09-07T07:08:36.948Z,100082.19
2022-09-07T07:13:40.260Z,100070.84
2022-09-07T07:18:42.620Z,100074.75
2022-09-07T07:23:44.846Z,100075.22
2022-09-07T07:29:04.561Z,100073.28
2022-09-07T07:34:06.347Z,100068.44
2022-09-07T07:39:08.487Z,100063.09
2022-09-07T07:44:29.647Z,100059.94
2022-09-07T07:49:31.222Z,100057.66
2022-09-07T07:54:36.844Z,100045.06
2022-09-07T07:59:39.137Z,100042.78
2022-09-07T08:04:40.714Z,100048.13
2022-09-07T08:09:44.084Z,100050.50
2022-09-07T08:14:47.622Z,100052.13
2022-09-07T08:19:49.243Z,100052.13
2022-09-07T08:24:51.171Z,100057.16
2022-09-07T08:29:52.674Z,100065.00
2022-09-07T08:34:54.165Z,100053.03
2022-09-07T08:39:55.749Z,100046.47
2022-09-07T08:45:10.020Z,100040.91
2022-09-07T08:50:23.210Z,100035.34
2022-09-07T08:56:23.587Z,100037.53
2022-09-07T09:01:31.828Z,100028.41
2022-09-07T09:06:48.856Z,100032.53
2022-09-07T09:11:59.462Z,100026.94
2022-09-07T09:17:08.690Z,100012.63
2022-09-07T09:22:15.592Z,100020.47
2022-09-07T09:27:17.165Z,100014.88
2022-09-07T09:32:36.624Z,100006.75
2022-09-07T09:37:39.738Z,100012.34
2022-09-07T09:42:41.338Z,100009.00
2022-09-07T09:47:49.017Z,100005.88
2022-09-07T09:52:51.927Z,100005.25
2022-09-07T10:09:05.347Z,100002.38
2022-09-07T10:14:18.440Z,99992.75
2022-09-07T10:19:35.490Z,99995.00
2022-09-07T10:24:39.152Z,99987.97
2022-09-07T10:29:41.681Z,99986.47
2022-09-07T10:34:52.568Z,99991.31
2022-09-07T10:40:12.332Z,99996.88
2022-09-07T10:45:20.073Z,99991.19
2022-09-07T10:50:31.921Z,99994.16
2022-09-07T10:55:36.863Z,99986.69
2022-09-07T11:01:03.157Z,99987.53
2022-09-07T11:06:30.260Z,99990.25
2022-09-07T11:17:04.407Z,99978.59
2022-09-07T11:22:30.196Z,99977.50
2022-09-07T11:27:45.850Z,99983.44
2022-09-07T11:32:58.950Z,99984.28
2022-09-07T11:38:06.480Z,99984.38
2022-09-07T11:43:30.466Z,99981.75
2022-09-07T11:48:48.736Z,99960.59
2022-09-07T11:53:56.217Z,99955.84
2022-09-07T11:58:57.606Z,99953.72
2022-09-07T12:04:27.409Z,99948.38
2022-09-07T12:09:41.110Z,99947.44
2022-09-07T12:15:01.288Z,99936.50
2022-09-07T12:20:16.191Z,99934.69
2022-09-07T12:25:18.670Z,99919.38
2022-09-07T12:30:20.090Z,99927.16
2022-09-07T12:35:27.325Z,99926.56
2022-09-07T12:40:28.928Z,99949.44
2022-09-07T12:45:30.407Z,99930.88
2022-09-07T12:50:39.475Z,99908.22
2022-09-07T12:56:18.918Z,99933.88
2022-09-07T13:02:11.176Z,99949.00
2022-09-07T13:07:29.448Z,99938.44
2022-09-07T13:17:56.422Z,99933.81
2022-09-07T13:23:16.338Z,99937.28
2022-09-07T13:28:23.726Z,99945.63
2022-09-07T13:33:25.190Z,99938.94
2022-09-07T13:38:27.660Z,99912.38
2022-09-07T13:43:29.208Z,99916.41
2022-09-07T13:48:37.666Z,99916.88
2022-09-07T13:53:48.324Z,99915.31
2022-09-07T13:58:52.123Z,99908.53
2022-09-07T14:03:59.810Z,99897.34
2022-09-07T14:09:11.562Z,99898.44
2022-09-07T14:14:21.039Z,99899.53
2022-09-07T14:19:29.662Z,99897.34
2022-09-07T14:24:34.223Z,99899.97
2022-09-07T14:29:36.721Z,99891.78
2022-09-07T14:34:38.586Z,99893.22
2022-09-07T14:39:42.502Z,99888.09
2022-09-07T14:44:44.911Z,99878.50
2022-09-07T14:49:52.580Z,99889.28
2022-09-07T14:54:54.147Z,99896.91
2022-09-07T14:59:57.199Z,99901.03
2022-09-07T15:05:17.962Z,99877.50
2022-09-07T15:10:23.542Z,99881.19
2022-09-07T15:15:39.510Z,99871.41
2022-09-07T15:20:44.016Z,99866.44
2022-09-07T15:25:50.949Z,99856.03
2022-09-07T15:31:40.540Z,99857.53
2022-09-07T15:36:16.399Z,99863.81
2022-09-07T15:41:24.071Z,99849.09
2022-09-07T15:46:26.247Z,99827.91
2022-09-07T16:13:02.832Z,99809.63
2022-09-07T16:18:05.343Z,99812.53
2022-09-07T16:23:15.227Z,99818.97
2022-09-07T16:28:17.329Z,99818.63
2022-09-07T16:33:18.898Z,99832.19
2022-09-07T16:43:41.995Z,99839.91
2022-09-07T16:48:44.125Z,99846.72
2022-09-07T16:53:45.802Z,99847.44
2022-09-07T16:58:49.467Z,99839.63
2022-09-07T17:03:51.915Z,99826.69
2022-09-07T17:08:53.932Z,99803.47
2022-09-07T17:13:57.023Z,99794.56
2022-09-07T17:24:24.212Z,99795.19
2022-09-07T17:29:25.747Z,99810.13
2022-09-07T17:34:27.619Z,99820.91
2022-09-07T17:39:29.991Z,99843.97
2022-09-07T17:44:36.005Z,99845.25
2022-09-07T17:49:39.783Z,99843.63
2022-09-07T17:54:42.037Z,99839.22
2022-09-07T18:05:11.502Z,99855.13
2022-09-07T18:10:13.193Z,99853.59
2022-09-07T18:15:14.872Z,99856.78
2022-09-07T18:20:16.502Z,99855.72
2022-09-07T18:25:18.107Z,99844.44
2022-09-07T18:30:19.934Z,99838.88
2022-09-07T18:35:21.497Z,99855.50
2022-09-07T18:40:23.211Z,99855.84
2022-09-07T18:45:28.227Z,99856.31
2022-09-07T18:50:29.955Z,99850.84
2022-09-07T18:55:32.311Z,99855.38
2022-09-07T19:00:34.003Z,99855.72
2022-09-07T19:05:52.733Z,99846.13
2022-09-07T19:10:54.632Z,99833.78
2022-09-07T19:16:09.827Z,99815.19
2022-09-07T19:21:16.568Z,99802.50
2022-09-07T19:26:18.377Z,99806.63
2022-09-07T19:31:20.001Z,99806.63
2022-09-07T19:36:22.087Z,99809.34
2022-09-07T19:41:23.759Z,99817.13
2022-09-07T19:46:25.706Z,99821.06
2022-09-07T19:51:27.474Z,99823.19
2022-09-07T19:56:28.956Z,99814.75
2022-09-07T20:01:30.847Z,99805.28
2022-09-07T20:06:33.420Z,99805.38
2022-09-07T20:11:35.588Z,99821.03
2022-09-07T20:16:39.137Z,99831.34
2022-09-07T20:21:40.933Z,99816.84
2022-09-07T20:26:42.538Z,99817.28
2022-09-07T20:31:44.367Z,99810.44
2022-09-07T20:36:45.892Z,99798.44
2022-09-07T20:41:47.761Z,99804.13
2022-09-07T20:46:49.317Z,99800.41
2022-09-07T20:51:50.938Z,99790.16
2022-09-07T20:56:52.572Z,99785.22
2022-09-07T21:01:54.171Z,99783.31
2022-09-07T21:06:55.703Z,99795.28
2022-09-07T21:11:57.385Z,99797.56
2022-09-07T21:16:58.940Z,99799.69
2022-09-07T21:22:00.455Z,99792.91
2022-09-07T21:27:01.996Z,99790.63
2022-09-07T21:32:03.658Z,99776.31
2022-09-07T21:37:05.218Z,99774.97
2022-09-07T21:42:06.734Z,99789.38
2022-09-07T21:47:08.345Z,99790.19
2022-09-07T21:52:09.991Z,99776.38
2022-09-07T21:57:11.545Z,99779.50
2022-09-07T22:02:13.119Z,99767.84
2022-09-07T22:07:14.722Z,99770.72
2022-09-07T22:12:16.877Z,99761.41
2022-09-07T22:17:18.405Z,99756.50
2022-09-07T22:22:19.910Z,99743.88
2022-09-07T22:27:21.415Z,99743.59
2022-09-07T22:32:22.957Z,99742.63
2022-09-07T22:37:24.702Z,99750.78
2022-09-07T22:42:26.274Z,99756.50
2022-09-07T22:47:27.763Z,99743.25
2022-09-07T22:52:29.314Z,99733.41
2022-09-07T22:57:30.836Z,99742.47
2022-09-07T23:02:32.368Z,99734.78
2022-09-07T23:07:33.862Z,99728.28
2022-09-07T23:12:35.416Z,99732.97
2022-09-07T23:17:36.934Z,99735.47
2022-09-07T23:22:38.679Z,99733.88
2022-09-07T23:27:40.313Z,99730.25
2022-09-07T23:32:41.893Z,99728.13
2022-09-07T23:37:43.541Z,99728.94
2022-09-07T23:42:45.050Z,99728.38
2022-09-07T23:47:46.696Z,99732.00
2022-09-07T23:52:48.174Z,99722.91
2022-09-07T23:57:49.671Z,99720.81
